sensor_id;sensor_type;location;lat;lon;timestamp;pressure;altitude;pressure_sealevel;temperature
70969;BMP280;58630;43.022;25.100;2023-10-08T00:00:46;;;;21.30
70969;BMP280;58630;43.022;25.100;2023-10-08T00:03:12;;;;21.30
70969;BMP280;58630;43.022;25.100;2023-10-08T00:05:39;;;;21.30
70969;BMP280;58630;43.022;25.100;2023-10-08T00:08:05;;;;21.30
70969;BMP280;58630;43.022;25.100;2023-10-08T00:10:38;;;;21.20
70969;BMP280;58630;43.022;25.100;2023-10-08T00:13:05;;;;21.20
70969;BMP280;58630;43.022;25.100;2023-10-08T00:15:34;;;;21.20
70969;BMP280;58630;43.022;25.100;2023-10-08T00:18:04;;;;21.20
70969;BMP280;58630;43.022;25.100;2023-10-08T00:20:37;;;;21.20
70969;BMP280;58630;43.022;25.100;2023-10-08T00:23:17;;;;21.10
70969;BMP280;58630;43.022;25.100;2023-10-08T00:25:43;;;;21.10
70969;BMP280;58630;43.022;25.100;2023-10-08T00:28:12;;;;21.10
70969;BMP280;58630;43.022;25.100;2023-10-08T00:30:42;;;;21.00
70969;BMP280;58630;43.022;25.100;2023-10-08T00:33:08;;;;21.00
70969;BMP280;58630;43.022;25.100;2023-10-08T00:35:41;;;;21.00
70969;BMP280;58630;43.022;25.100;2023-10-08T00:38:10;;;;21.00
70969;BMP280;58630;43.022;25.100;2023-10-08T00:40:45;;;;20.90
70969;BMP280;58630;43.022;25.100;2023-10-08T00:43:32;;;;20.90
70969;BMP280;58630;43.022;25.100;2023-10-08T00:46:03;;;;20.90
70969;BMP280;58630;43.022;25.100;2023-10-08T00:48:42;;;;20.90
70969;BMP280;58630;43.022;25.100;2023-10-08T00:51:09;;;;20.90
70969;BMP280;58630;43.022;25.100;2023-10-08T00:53:52;;;;20.80
70969;BMP280;58630;43.022;25.100;2023-10-08T00:56:24;;;;20.80
70969;BMP280;58630;43.022;25.100;2023-10-08T00:58:50;;;;20.80
70969;BMP280;58630;43.022;25.100;2023-10-08T01:01:18;;;;20.80
70969;BMP280;58630;43.022;25.100;2023-10-08T01:03:46;;;;20.70
70969;BMP280;58630;43.022;25.100;2023-10-08T01:06:16;;;;20.70
70969;BMP280;58630;43.022;25.100;2023-10-08T01:08:44;;;;20.70
70969;BMP280;58630;43.022;25.100;2023-10-08T01:11:21;;;;20.70
70969;BMP280;58630;43.022;25.100;2023-10-08T01:13:56;;;;20.70
70969;BMP280;58630;43.022;25.100;2023-10-08T01:16:24;;;;20.60
70969;BMP280;58630;43.022;25.100;2023-10-08T01:18:52;;;;20.60
70969;BMP280;58630;43.022;25.100;2023-10-08T01:21:19;;;;20.60
70969;BMP280;58630;43.022;25.100;2023-10-08T01:23:56;;;;20.60
70969;BMP280;58630;43.022;25.100;2023-10-08T01:26:25;;;;20.50
70969;BMP280;58630;43.022;25.100;2023-10-08T01:28:51;;;;20.50
70969;BMP280;58630;43.022;25.100;2023-10-08T01:31:18;;;;20.50
70969;BMP280;58630;43.022;25.100;2023-10-08T01:33:43;;;;20.50
70969;BMP280;58630;43.022;25.100;2023-10-08T01:36:25;;;;20.50
70969;BMP280;58630;43.022;25.100;2023-10-08T01:38:51;;;;20.40
70969;BMP280;58630;43.022;25.100;2023-10-08T01:41:17;;;;20.40
70969;BMP280;58630;43.022;25.100;2023-10-08T01:43:45;;;;20.40
70969;BMP280;58630;43.022;25.100;2023-10-08T01:46:11;;;;20.40
70969;BMP280;58630;43.022;25.100;2023-10-08T01:48:38;;;;20.40
70969;BMP280;58630;43.022;25.100;2023-10-08T01:51:04;;;;20.30
70969;BMP280;58630;43.022;25.100;2023-10-08T01:53:37;;;;20.30
70969;BMP280;58630;43.022;25.100;2023-10-08T01:56:04;;;;20.30
70969;BMP280;58630;43.022;25.100;2023-10-08T01:58:29;;;;20.30
70969;BMP280;58630;43.022;25.100;2023-10-08T02:00:55;;;;20.30
70969;BMP280;58630;43.022;25.100;2023-10-08T02:03:26;;;;20.20
70969;BMP280;58630;43.022;25.100;2023-10-08T02:05:52;;;;20.20
70969;BMP280;58630;43.022;25.100;2023-10-08T02:08:19;;;;20.20
70969;BMP280;58630;43.022;25.100;2023-10-08T02:10:44;;;;20.20
70969;BMP280;58630;43.022;25.100;2023-10-08T02:13:13;;;;20.20
70969;BMP280;58630;43.022;25.100;2023-10-08T02:15:43;;;;20.10
70969;BMP280;58630;43.022;25.100;2023-10-08T02:18:09;;;;20.10
70969;BMP280;58630;43.022;25.100;2023-10-08T02:20:34;;;;20.10
70969;BMP280;58630;43.022;25.100;2023-10-08T02:23:00;;;;20.10
70969;BMP280;58630;43.022;25.100;2023-10-08T02:25:26;;;;20.10
70969;BMP280;58630;43.022;25.100;2023-10-08T02:27:51;;;;20.00
70969;BMP280;58630;43.022;25.100;2023-10-08T02:30:17;;;;20.00
70969;BMP280;58630;43.022;25.100;2023-10-08T02:32:43;;;;20.00
70969;BMP280;58630;43.022;25.100;2023-10-08T02:35:12;;;;20.00
70969;BMP280;58630;43.022;25.100;2023-10-08T02:37:38;;;;20.00
70969;BMP280;58630;43.022;25.100;2023-10-08T02:40:07;;;;20.00
70969;BMP280;58630;43.022;25.100;2023-10-08T02:42:51;;;;19.90
70969;BMP280;58630;43.022;25.100;2023-10-08T02:45:16;;;;19.90
70969;BMP280;58630;43.022;25.100;2023-10-08T02:47:43;;;;19.90
70969;BMP280;58630;43.022;25.100;2023-10-08T02:50:11;;;;19.90
70969;BMP280;58630;43.022;25.100;2023-10-08T02:52:37;;;;19.80
70969;BMP280;58630;43.022;25.100;2023-10-08T02:55:03;;;;19.80
70969;BMP280;58630;43.022;25.100;2023-10-08T02:57:30;;;;19.80
70969;BMP280;58630;43.022;25.100;2023-10-08T02:59:57;;;;19.80
70969;BMP280;58630;43.022;25.100;2023-10-08T03:02:22;;;;19.80
70969;BMP280;58630;43.022;25.100;2023-10-08T03:04:49;;;;19.70
70969;BMP280;58630;43.022;25.100;2023-10-08T03:07:16;;;;19.70
70969;BMP280;58630;43.022;25.100;2023-10-08T03:09:49;;;;19.70
70969;BMP280;58630;43.022;25.100;2023-10-08T03:12:18;;;;19.70
70969;BMP280;58630;43.022;25.100;2023-10-08T03:14:44;;;;19.70
70969;BMP280;58630;43.022;25.100;2023-10-08T03:17:30;;;;19.70
70969;BMP280;58630;43.022;25.100;2023-10-08T03:19:55;;;;19.60
70969;BMP280;58630;43.022;25.100;2023-10-08T03:22:44;;;;19.60
70969;BMP280;58630;43.022;25.100;2023-10-08T03:25:12;;;;19.60
70969;BMP280;58630;43.022;25.100;2023-10-08T03:27:41;;;;19.60
70969;BMP280;58630;43.022;25.100;2023-10-08T03:30:07;;;;19.60
70969;BMP280;58630;43.022;25.100;2023-10-08T03:32:39;;;;19.50
70969;BMP280;58630;43.022;25.100;2023-10-08T03:35:06;;;;19.50
70969;BMP280;58630;43.022;25.100;2023-10-08T03:37:36;;;;19.50
70969;BMP280;58630;43.022;25.100;2023-10-08T03:40:07;;;;19.50
70969;BMP280;58630;43.022;25.100;2023-10-08T03:42:50;;;;19.40
70969;BMP280;58630;43.022;25.100;2023-10-08T03:45:16;;;;19.40
70969;BMP280;58630;43.022;25.100;2023-10-08T03:47:48;;;;19.40
70969;BMP280;58630;43.022;25.100;2023-10-08T03:50:29;;;;19.40
70969;BMP280;58630;43.022;25.100;2023-10-08T03:53:07;;;;19.40
70969;BMP280;58630;43.022;25.100;2023-10-08T03:55:40;;;;19.40
70969;BMP280;58630;43.022;25.100;2023-10-08T03:58:09;;;;19.40
70969;BMP280;58630;43.022;25.100;2023-10-08T04:00:54;;;;19.30
70969;BMP280;58630;43.022;25.100;2023-10-08T04:03:37;;;;19.30
70969;BMP280;58630;43.022;25.100;2023-10-08T04:06:20;;;;19.30
70969;BMP280;58630;43.022;25.100;2023-10-08T04:08:56;;;;19.30
70969;BMP280;58630;43.022;25.100;2023-10-08T04:11:44;;;;19.20
70969;BMP280;58630;43.022;25.100;2023-10-08T04:14:24;;;;19.20
70969;BMP280;58630;43.022;25.100;2023-10-08T04:16:50;;;;19.20
70969;BMP280;58630;43.022;25.100;2023-10-08T04:19:19;;;;19.20
70969;BMP280;58630;43.022;25.100;2023-10-08T04:21:46;;;;19.10
70969;BMP280;58630;43.022;25.100;2023-10-08T04:24:28;;;;19.10
70969;BMP280;58630;43.022;25.100;2023-10-08T04:26:55;;;;19.10
70969;BMP280;58630;43.022;25.100;2023-10-08T04:29:24;;;;19.10
70969;BMP280;58630;43.022;25.100;2023-10-08T04:31:50;;;;19.10
70969;BMP280;58630;43.022;25.100;2023-10-08T04:34:27;;;;19.10
70969;BMP280;58630;43.022;25.100;2023-10-08T04:36:53;;;;19.00
70969;BMP280;58630;43.022;25.100;2023-10-08T04:39:29;;;;19.00
70969;BMP280;58630;43.022;25.100;2023-10-08T04:41:59;;;;19.00
70969;BMP280;58630;43.022;25.100;2023-10-08T04:44:31;;;;19.00
70969;BMP280;58630;43.022;25.100;2023-10-08T04:46:57;;;;19.00
70969;BMP280;58630;43.022;25.100;2023-10-08T04:49:30;;;;19.00
70969;BMP280;58630;43.022;25.100;2023-10-08T04:52:02;;;;18.90
70969;BMP280;58630;43.022;25.100;2023-10-08T04:54:39;;;;18.90
70969;BMP280;58630;43.022;25.100;2023-10-08T04:57:06;;;;18.90
70969;BMP280;58630;43.022;25.100;2023-10-08T04:59:32;;;;18.90
70969;BMP280;58630;43.022;25.100;2023-10-08T05:01:58;;;;18.90
70969;BMP280;58630;43.022;25.100;2023-10-08T05:04:48;;;;18.90
70969;BMP280;58630;43.022;25.100;2023-10-08T05:07:16;;;;18.80
70969;BMP280;58630;43.022;25.100;2023-10-08T05:10:00;;;;18.80
70969;BMP280;58630;43.022;25.100;2023-10-08T05:12:29;;;;18.80
70969;BMP280;58630;43.022;25.100;2023-10-08T05:15:06;;;;18.80
70969;BMP280;58630;43.022;25.100;2023-10-08T05:17:54;;;;18.80
70969;BMP280;58630;43.022;25.100;2023-10-08T05:20:34;;;;18.80
70969;BMP280;58630;43.022;25.100;2023-10-08T05:23:12;;;;18.70
70969;BMP280;58630;43.022;25.100;2023-10-08T05:26:06;;;;18.70
70969;BMP280;58630;43.022;25.100;2023-10-08T05:28:32;;;;18.70
70969;BMP280;58630;43.022;25.100;2023-10-08T05:31:07;;;;18.70
70969;BMP280;58630;43.022;25.100;2023-10-08T05:33:39;;;;18.70
70969;BMP280;58630;43.022;25.100;2023-10-08T05:36:23;;;;18.70
70969;BMP280;58630;43.022;25.100;2023-10-08T05:39:07;;;;18.70
70969;BMP280;58630;43.022;25.100;2023-10-08T05:41:51;;;;18.70
70969;BMP280;58630;43.022;25.100;2023-10-08T05:44:18;;;;18.70
70969;BMP280;58630;43.022;25.100;2023-10-08T05:46:43;;;;18.60
70969;BMP280;58630;43.022;25.100;2023-10-08T05:49:21;;;;18.60
70969;BMP280;58630;43.022;25.100;2023-10-08T05:52:13;;;;18.60
70969;BMP280;58630;43.022;25.100;2023-10-08T05:54:51;;;;18.60
70969;BMP280;58630;43.022;25.100;2023-10-08T05:57:35;;;;18.60
70969;BMP280;58630;43.022;25.100;2023-10-08T06:00:04;;;;18.60
70969;BMP280;58630;43.022;25.100;2023-10-08T06:02:30;;;;18.60
70969;BMP280;58630;43.022;25.100;2023-10-08T06:05:08;;;;18.60
70969;BMP280;58630;43.022;25.100;2023-10-08T06:10:21;;;;18.60
70969;BMP280;58630;43.022;25.100;2023-10-08T06:12:57;;;;18.60
70969;BMP280;58630;43.022;25.100;2023-10-08T06:15:44;;;;18.60
70969;BMP280;58630;43.022;25.100;2023-10-08T06:18:19;;;;18.60
70969;BMP280;58630;43.022;25.100;2023-10-08T06:20:45;;;;18.60
70969;BMP280;58630;43.022;25.100;2023-10-08T06:23:14;;;;18.60
70969;BMP280;58630;43.022;25.100;2023-10-08T06:25:47;;;;18.60
70969;BMP280;58630;43.022;25.100;2023-10-08T06:28:16;;;;18.60
70969;BMP280;58630;43.022;25.100;2023-10-08T06:30:45;;;;18.60
70969;BMP280;58630;43.022;25.100;2023-10-08T06:33:11;;;;18.60
70969;BMP280;58630;43.022;25.100;2023-10-08T06:35:36;;;;18.60
70969;BMP280;58630;43.022;25.100;2023-10-08T06:38:02;;;;18.60
70969;BMP280;58630;43.022;25.100;2023-10-08T06:40:35;;;;18.60
70969;BMP280;58630;43.022;25.100;2023-10-08T06:43:04;;;;18.60
70969;BMP280;58630;43.022;25.100;2023-10-08T06:45:37;;;;18.60
70969;BMP280;58630;43.022;25.100;2023-10-08T06:48:05;;;;18.60
70969;BMP280;58630;43.022;25.100;2023-10-08T06:50:32;;;;18.60
70969;BMP280;58630;43.022;25.100;2023-10-08T06:52:59;;;;18.60
70969;BMP280;58630;43.022;25.100;2023-10-08T06:55:31;;;;18.60
70969;BMP280;58630;43.022;25.100;2023-10-08T06:57:59;;;;18.60
70969;BMP280;58630;43.022;25.100;2023-10-08T07:00:25;;;;18.60
70969;BMP280;58630;43.022;25.100;2023-10-08T07:03:23;;;;18.60
70969;BMP280;58630;43.022;25.100;2023-10-08T07:05:50;;;;18.70
70969;BMP280;58630;43.022;25.100;2023-10-08T07:08:25;;;;18.70
70969;BMP280;58630;43.022;25.100;2023-10-08T07:10:52;;;;18.60
70969;BMP280;58630;43.022;25.100;2023-10-08T07:13:19;;;;18.60
70969;BMP280;58630;43.022;25.100;2023-10-08T07:15:50;;;;18.60
70969;BMP280;58630;43.022;25.100;2023-10-08T07:18:16;;;;18.60
70969;BMP280;58630;43.022;25.100;2023-10-08T07:20:50;;;;18.60
70969;BMP280;58630;43.022;25.100;2023-10-08T07:23:22;;;;18.60
70969;BMP280;58630;43.022;25.100;2023-10-08T07:25:57;;;;18.60
70969;BMP280;58630;43.022;25.100;2023-10-08T07:28:41;;;;18.70
70969;BMP280;58630;43.022;25.100;2023-10-08T07:31:16;;;;18.70
70969;BMP280;58630;43.022;25.100;2023-10-08T07:33:46;;;;18.70
70969;BMP280;58630;43.022;25.100;2023-10-08T07:36:12;;;;18.70
70969;BMP280;58630;43.022;25.100;2023-10-08T07:38:39;;;;18.70
70969;BMP280;58630;43.022;25.100;2023-10-08T07:41:10;;;;18.70
70969;BMP280;58630;43.022;25.100;2023-10-08T07:43:43;;;;18.70
70969;BMP280;58630;43.022;25.100;2023-10-08T07:46:09;;;;18.70
70969;BMP280;58630;43.022;25.100;2023-10-08T07:48:35;;;;18.80
70969;BMP280;58630;43.022;25.100;2023-10-08T07:51:00;;;;18.80
70969;BMP280;58630;43.022;25.100;2023-10-08T07:53:27;;;;18.80
70969;BMP280;58630;43.022;25.100;2023-10-08T07:56:03;;;;18.80
70969;BMP280;58630;43.022;25.100;2023-10-08T07:58:29;;;;18.80
70969;BMP280;58630;43.022;25.100;2023-10-08T08:00:54;;;;18.80
70969;BMP280;58630;43.022;25.100;2023-10-08T08:03:20;;;;18.80
70969;BMP280;58630;43.022;25.100;2023-10-08T08:05:46;;;;18.90
70969;BMP280;58630;43.022;25.100;2023-10-08T08:08:13;;;;18.90
70969;BMP280;58630;43.022;25.100;2023-10-08T08:10:43;;;;18.90
70969;BMP280;58630;43.022;25.100;2023-10-08T08:13:09;;;;18.90
70969;BMP280;58630;43.022;25.100;2023-10-08T08:15:35;;;;18.90
70969;BMP280;58630;43.022;25.100;2023-10-08T08:18:07;;;;18.90
70969;BMP280;58630;43.022;25.100;2023-10-08T08:20:35;;;;18.90
70969;BMP280;58630;43.022;25.100;2023-10-08T08:23:04;;;;18.90
70969;BMP280;58630;43.022;25.100;2023-10-08T08:25:39;;;;18.90
70969;BMP280;58630;43.022;25.100;2023-10-08T08:28:13;;;;18.90
70969;BMP280;58630;43.022;25.100;2023-10-08T08:30:45;;;;18.90
70969;BMP280;58630;43.022;25.100;2023-10-08T08:33:17;;;;18.90
70969;BMP280;58630;43.022;25.100;2023-10-08T08:36:00;;;;18.90
70969;BMP280;58630;43.022;25.100;2023-10-08T08:38:27;;;;19.00
70969;BMP280;58630;43.022;25.100;2023-10-08T08:41:04;;;;19.00
70969;BMP280;58630;43.022;25.100;2023-10-08T08:43:39;;;;19.00
70969;BMP280;58630;43.022;25.100;2023-10-08T08:46:10;;;;19.00
70969;BMP280;58630;43.022;25.100;2023-10-08T08:48:39;;;;19.00
70969;BMP280;58630;43.022;25.100;2023-10-08T08:51:05;;;;19.00
70969;BMP280;58630;43.022;25.100;2023-10-08T08:53:36;;;;19.00
70969;BMP280;58630;43.022;25.100;2023-10-08T08:56:09;;;;19.00
70969;BMP280;58630;43.022;25.100;2023-10-08T08:58:36;;;;19.00
70969;BMP280;58630;43.022;25.100;2023-10-08T09:01:09;;;;19.10
70969;BMP280;58630;43.022;25.100;2023-10-08T09:04:01;;;;19.10
70969;BMP280;58630;43.022;25.100;2023-10-08T09:06:27;;;;19.10
70969;BMP280;58630;43.022;25.100;2023-10-08T09:08:53;;;;19.10
70969;BMP280;58630;43.022;25.100;2023-10-08T09:11:21;;;;19.10
70969;BMP280;58630;43.022;25.100;2023-10-08T09:13:47;;;;19.10
70969;BMP280;58630;43.022;25.100;2023-10-08T09:16:13;;;;19.10
70969;BMP280;58630;43.022;25.100;2023-10-08T09:18:41;;;;19.10
70969;BMP280;58630;43.022;25.100;2023-10-08T09:21:10;;;;19.10
70969;BMP280;58630;43.022;25.100;2023-10-08T09:23:39;;;;19.10
70969;BMP280;58630;43.022;25.100;2023-10-08T09:26:09;;;;19.20
70969;BMP280;58630;43.022;25.100;2023-10-08T09:28:34;;;;19.20
70969;BMP280;58630;43.022;25.100;2023-10-08T09:31:04;;;;19.20
70969;BMP280;58630;43.022;25.100;2023-10-08T09:33:30;;;;19.20
70969;BMP280;58630;43.022;25.100;2023-10-08T09:35:56;;;;19.20
70969;BMP280;58630;43.022;25.100;2023-10-08T09:38:22;;;;19.20
70969;BMP280;58630;43.022;25.100;2023-10-08T09:40:49;;;;19.30
70969;BMP280;58630;43.022;25.100;2023-10-08T09:43:15;;;;19.30
70969;BMP280;58630;43.022;25.100;2023-10-08T09:45:51;;;;19.30
70969;BMP280;58630;43.022;25.100;2023-10-08T09:48:18;;;;19.30
70969;BMP280;58630;43.022;25.100;2023-10-08T09:50:45;;;;19.30
70969;BMP280;58630;43.022;25.100;2023-10-08T09:53:12;;;;19.30
70969;BMP280;58630;43.022;25.100;2023-10-08T09:55:57;;;;19.30
70969;BMP280;58630;43.022;25.100;2023-10-08T09:58:23;;;;19.40
70969;BMP280;58630;43.022;25.100;2023-10-08T10:00:49;;;;19.40
70969;BMP280;58630;43.022;25.100;2023-10-08T10:03:16;;;;19.40
70969;BMP280;58630;43.022;25.100;2023-10-08T10:05:44;;;;19.40
70969;BMP280;58630;43.022;25.100;2023-10-08T10:08:10;;;;19.50
70969;BMP280;58630;43.022;25.100;2023-10-08T10:10:36;;;;19.50
70969;BMP280;58630;43.022;25.100;2023-10-08T10:13:08;;;;19.50
70969;BMP280;58630;43.022;25.100;2023-10-08T10:15:38;;;;19.50
70969;BMP280;58630;43.022;25.100;2023-10-08T10:23:41;;;;19.70
70969;BMP280;58630;43.022;25.100;2023-10-08T10:31:43;;;;19.70
70969;BMP280;58630;43.022;25.100;2023-10-08T10:34:12;;;;19.80
70969;BMP280;58630;43.022;25.100;2023-10-08T10:36:38;;;;19.80
70969;BMP280;58630;43.022;25.100;2023-10-08T10:39:05;;;;19.90
70969;BMP280;58630;43.022;25.100;2023-10-08T10:41:52;;;;20.00
70969;BMP280;58630;43.022;25.100;2023-10-08T10:44:25;;;;20.00
70969;BMP280;58630;43.022;25.100;2023-10-08T10:46:50;;;;20.10
70969;BMP280;58630;43.022;25.100;2023-10-08T10:49:16;;;;20.20
70969;BMP280;58630;43.022;25.100;2023-10-08T10:51:56;;;;20.20
70969;BMP280;58630;43.022;25.100;2023-10-08T10:54:25;;;;20.20
70969;BMP280;58630;43.022;25.100;2023-10-08T10:56:52;;;;20.20
70969;BMP280;58630;43.022;25.100;2023-10-08T10:59:29;;;;20.20
70969;BMP280;58630;43.022;25.100;2023-10-08T11:03:02;;;;20.30
70969;BMP280;58630;43.022;25.100;2023-10-08T11:05:29;;;;20.40
70969;BMP280;58630;43.022;25.100;2023-10-08T11:07:56;;;;20.60
70969;BMP280;58630;43.022;25.100;2023-10-08T11:10:33;;;;20.70
70969;BMP280;58630;43.022;25.100;2023-10-08T11:12:59;;;;20.80
70969;BMP280;58630;43.022;25.100;2023-10-08T11:15:28;;;;20.90
70969;BMP280;58630;43.022;25.100;2023-10-08T11:18:11;;;;21.00
70969;BMP280;58630;43.022;25.100;2023-10-08T11:20:37;;;;21.00
70969;BMP280;58630;43.022;25.100;2023-10-08T11:23:07;;;;21.10
70969;BMP280;58630;43.022;25.100;2023-10-08T11:25:54;;;;21.20
70969;BMP280;58630;43.022;25.100;2023-10-08T11:28:19;;;;21.30
70969;BMP280;58630;43.022;25.100;2023-10-08T11:30:45;;;;21.40
70969;BMP280;58630;43.022;25.100;2023-10-08T11:33:12;;;;21.60
70969;BMP280;58630;43.022;25.100;2023-10-08T11:38:25;;;;21.80
70969;BMP280;58630;43.022;25.100;2023-10-08T11:40:50;;;;21.90
70969;BMP280;58630;43.022;25.100;2023-10-08T11:43:24;;;;22.00
70969;BMP280;58630;43.022;25.100;2023-10-08T11:45:50;;;;22.20
70969;BMP280;58630;43.022;25.100;2023-10-08T11:48:16;;;;22.20
70969;BMP280;58630;43.022;25.100;2023-10-08T11:50:51;;;;22.30
70969;BMP280;58630;43.022;25.100;2023-10-08T11:53:17;;;;22.40
70969;BMP280;58630;43.022;25.100;2023-10-08T11:55:44;;;;22.50
70969;BMP280;58630;43.022;25.100;2023-10-08T11:58:13;;;;22.60
70969;BMP280;58630;43.022;25.100;2023-10-08T12:00:43;;;;22.70
70969;BMP280;58630;43.022;25.100;2023-10-08T12:03:12;;;;22.70
70969;BMP280;58630;43.022;25.100;2023-10-08T12:05:40;;;;22.70
70969;BMP280;58630;43.022;25.100;2023-10-08T12:08:15;;;;22.80
70969;BMP280;58630;43.022;25.100;2023-10-08T12:10:44;;;;23.00
70969;BMP280;58630;43.022;25.100;2023-10-08T12:13:12;;;;23.00
70969;BMP280;58630;43.022;25.100;2023-10-08T12:15:37;;;;23.00
70969;BMP280;58630;43.022;25.100;2023-10-08T12:18:07;;;;23.10
70969;BMP280;58630;43.022;25.100;2023-10-08T12:20:50;;;;23.20
70969;BMP280;58630;43.022;25.100;2023-10-08T12:23:16;;;;23.50
70969;BMP280;58630;43.022;25.100;2023-10-08T12:25:53;;;;23.70
70969;BMP280;58630;43.022;25.100;2023-10-08T12:28:21;;;;24.00
70969;BMP280;58630;43.022;25.100;2023-10-08T12:30:49;;;;24.20
70969;BMP280;58630;43.022;25.100;2023-10-08T12:33:18;;;;24.40
70969;BMP280;58630;43.022;25.100;2023-10-08T12:35:45;;;;24.50
70969;BMP280;58630;43.022;25.100;2023-10-08T12:38:11;;;;24.60
70969;BMP280;58630;43.022;25.100;2023-10-08T12:40:38;;;;24.70
70969;BMP280;58630;43.022;25.100;2023-10-08T12:43:16;;;;24.80
70969;BMP280;58630;43.022;25.100;2023-10-08T12:45:47;;;;25.00
70969;BMP280;58630;43.022;25.100;2023-10-08T12:48:23;;;;25.10
70969;BMP280;58630;43.022;25.100;2023-10-08T12:50:50;;;;25.20
70969;BMP280;58630;43.022;25.100;2023-10-08T12:53:22;;;;25.30
70969;BMP280;58630;43.022;25.100;2023-10-08T12:55:52;;;;25.60
70969;BMP280;58630;43.022;25.100;2023-10-08T12:58:22;;;;25.90
70969;BMP280;58630;43.022;25.100;2023-10-08T13:00:55;;;;26.10
70969;BMP280;58630;43.022;25.100;2023-10-08T13:03:24;;;;26.40
70969;BMP280;58630;43.022;25.100;2023-10-08T13:05:50;;;;26.60
70969;BMP280;58630;43.022;25.100;2023-10-08T13:08:18;;;;26.80
70969;BMP280;58630;43.022;25.100;2023-10-08T13:10:48;;;;27.00
70969;BMP280;58630;43.022;25.100;2023-10-08T13:13:13;;;;27.10
70969;BMP280;58630;43.022;25.100;2023-10-08T13:15:39;;;;27.30
70969;BMP280;58630;43.022;25.100;2023-10-08T13:18:07;;;;27.50
70969;BMP280;58630;43.022;25.100;2023-10-08T13:20:33;;;;27.60
70969;BMP280;58630;43.022;25.100;2023-10-08T13:23:00;;;;27.60
70969;BMP280;58630;43.022;25.100;2023-10-08T13:25:25;;;;27.60
70969;BMP280;58630;43.022;25.100;2023-10-08T13:27:52;;;;27.60
70969;BMP280;58630;43.022;25.100;2023-10-08T13:30:17;;;;27.60
70969;BMP280;58630;43.022;25.100;2023-10-08T13:32:43;;;;27.70
70969;BMP280;58630;43.022;25.100;2023-10-08T13:35:08;;;;27.90
70969;BMP280;58630;43.022;25.100;2023-10-08T13:37:36;;;;28.10
70969;BMP280;58630;43.022;25.100;2023-10-08T13:40:02;;;;28.30
70969;BMP280;58630;43.022;25.100;2023-10-08T13:42:27;;;;28.50
70969;BMP280;58630;43.022;25.100;2023-10-08T13:44:54;;;;28.40
70969;BMP280;58630;43.022;25.100;2023-10-08T13:47:23;;;;27.50
70969;BMP280;58630;43.022;25.100;2023-10-08T13:49:53;;;;26.90
70969;BMP280;58630;43.022;25.100;2023-10-08T13:52:20;;;;26.40
70969;BMP280;58630;43.022;25.100;2023-10-08T13:54:49;;;;26.30
70969;BMP280;58630;43.022;25.100;2023-10-08T13:57:20;;;;26.30
70969;BMP280;58630;43.022;25.100;2023-10-08T13:59:46;;;;26.30
70969;BMP280;58630;43.022;25.100;2023-10-08T14:02:12;;;;26.20
70969;BMP280;58630;43.022;25.100;2023-10-08T14:04:41;;;;26.10
70969;BMP280;58630;43.022;25.100;2023-10-08T14:07:09;;;;26.00
70969;BMP280;58630;43.022;25.100;2023-10-08T14:09:37;;;;26.10
70969;BMP280;58630;43.022;25.100;2023-10-08T14:12:03;;;;26.00
70969;BMP280;58630;43.022;25.100;2023-10-08T14:14:29;;;;25.90
70969;BMP280;58630;43.022;25.100;2023-10-08T14:16:59;;;;25.90
70969;BMP280;58630;43.022;25.100;2023-10-08T14:19:28;;;;26.00
70969;BMP280;58630;43.022;25.100;2023-10-08T14:22:01;;;;26.00
70969;BMP280;58630;43.022;25.100;2023-10-08T14:24:28;;;;26.20
70969;BMP280;58630;43.022;25.100;2023-10-08T14:26:58;;;;26.20
70969;BMP280;58630;43.022;25.100;2023-10-08T14:29:31;;;;26.10
70969;BMP280;58630;43.022;25.100;2023-10-08T14:33:02;;;;26.00
70969;BMP280;58630;43.022;25.100;2023-10-08T14:35:29;;;;26.10
70969;BMP280;58630;43.022;25.100;2023-10-08T14:38:13;;;;26.10
70969;BMP280;58630;43.022;25.100;2023-10-08T14:40:57;;;;26.20
70969;BMP280;58630;43.022;25.100;2023-10-08T14:43:41;;;;26.30
70969;BMP280;58630;43.022;25.100;2023-10-08T14:46:08;;;;26.40
70969;BMP280;58630;43.022;25.100;2023-10-08T14:48:34;;;;26.50
70969;BMP280;58630;43.022;25.100;2023-10-08T14:51:01;;;;26.50
70969;BMP280;58630;43.022;25.100;2023-10-08T14:53:28;;;;26.40
70969;BMP280;58630;43.022;25.100;2023-10-08T14:55:55;;;;26.40
70969;BMP280;58630;43.022;25.100;2023-10-08T14:58:20;;;;26.40
70969;BMP280;58630;43.022;25.100;2023-10-08T15:00:46;;;;26.30
70969;BMP280;58630;43.022;25.100;2023-10-08T15:03:12;;;;26.30
70969;BMP280;58630;43.022;25.100;2023-10-08T15:05:38;;;;26.50
70969;BMP280;58630;43.022;25.100;2023-10-08T15:08:05;;;;26.60
70969;BMP280;58630;43.022;25.100;2023-10-08T15:10:35;;;;26.50
70969;BMP280;58630;43.022;25.100;2023-10-08T15:13:00;;;;26.40
70969;BMP280;58630;43.022;25.100;2023-10-08T15:15:26;;;;26.40
70969;BMP280;58630;43.022;25.100;2023-10-08T15:17:57;;;;26.30
70969;BMP280;58630;43.022;25.100;2023-10-08T15:20:23;;;;26.30
70969;BMP280;58630;43.022;25.100;2023-10-08T15:22:49;;;;26.30
70969;BMP280;58630;43.022;25.100;2023-10-08T15:25:15;;;;26.30
70969;BMP280;58630;43.022;25.100;2023-10-08T15:27:45;;;;26.30
70969;BMP280;58630;43.022;25.100;2023-10-08T15:30:13;;;;26.30
70969;BMP280;58630;43.022;25.100;2023-10-08T15:32:42;;;;26.30
70969;BMP280;58630;43.022;25.100;2023-10-08T15:35:13;;;;26.30
70969;BMP280;58630;43.022;25.100;2023-10-08T15:37:45;;;;26.20
70969;BMP280;58630;43.022;25.100;2023-10-08T15:40:10;;;;26.20
70969;BMP280;58630;43.022;25.100;2023-10-08T15:42:52;;;;26.20
70969;BMP280;58630;43.022;25.100;2023-10-08T15:45:18;;;;26.10
70969;BMP280;58630;43.022;25.100;2023-10-08T15:47:45;;;;26.20
70969;BMP280;58630;43.022;25.100;2023-10-08T15:50:10;;;;26.10
70969;BMP280;58630;43.022;25.100;2023-10-08T15:52:36;;;;26.20
70969;BMP280;58630;43.022;25.100;2023-10-08T15:55:03;;;;26.10
70969;BMP280;58630;43.022;25.100;2023-10-08T15:57:29;;;;26.10
70969;BMP280;58630;43.022;25.100;2023-10-08T15:59:55;;;;26.10
70969;BMP280;58630;43.022;25.100;2023-10-08T16:02:20;;;;26.10
70969;BMP280;58630;43.022;25.100;2023-10-08T16:04:46;;;;26.10
70969;BMP280;58630;43.022;25.100;2023-10-08T16:07:11;;;;26.10
70969;BMP280;58630;43.022;25.100;2023-10-08T16:09:37;;;;26.10
70969;BMP280;58630;43.022;25.100;2023-10-08T16:12:03;;;;26.10
70969;BMP280;58630;43.022;25.100;2023-10-08T16:14:29;;;;26.00
70969;BMP280;58630;43.022;25.100;2023-10-08T16:16:54;;;;26.00
70969;BMP280;58630;43.022;25.100;2023-10-08T16:19:20;;;;26.00
70969;BMP280;58630;43.022;25.100;2023-10-08T16:21:45;;;;26.00